sensor_id;sensor_type;location;lat;lon;timestamp;temperature;humidity
16441;DHT22;8330;-33.858;151.184;2024-01-07T00:01:54;27.40;99.90
16441;DHT22;8330;-33.858;151.184;2024-01-07T00:04:25;27.30;99.90
16441;DHT22;8330;-33.858;151.184;2024-01-07T00:06:57;27.50;99.90
16441;DHT22;8330;-33.858;151.184;2024-01-07T00:09:29;27.70;99.90
16441;DHT22;8330;-33.858;151.184;2024-01-07T00:12:00;27.70;99.90
16441;DHT22;8330;-33.858;151.184;2024-01-07T00:14:31;27.80;99.90
16441;DHT22;8330;-33.858;151.184;2024-01-07T00:17:02;27.90;99.90
16441;DHT22;8330;-33.858;151.184;2024-01-07T00:19:32;27.90;99.90
16441;DHT22;8330;-33.858;151.184;2024-01-07T00:22:05;28.00;99.90
16441;DHT22;8330;-33.858;151.184;2024-01-07T00:24:36;28.00;99.90
16441;DHT22;8330;-33.858;151.184;2024-01-07T00:27:07;28.10;99.90
16441;DHT22;8330;-33.858;151.184;2024-01-07T00:29:38;28.20;99.90
16441;DHT22;8330;-33.858;151.184;2024-01-07T00:32:09;28.20;99.90
16441;DHT22;8330;-33.858;151.184;2024-01-07T00:34:39;28.20;99.90
16441;DHT22;8330;-33.858;151.184;2024-01-07T00:37:14;28.20;99.90
16441;DHT22;8330;-33.858;151.184;2024-01-07T00:39:45;28.10;99.90
16441;DHT22;8330;-33.858;151.184;2024-01-07T00:42:16;28.10;99.90
16441;DHT22;8330;-33.858;151.184;2024-01-07T00:44:46;28.20;99.90
16441;DHT22;8330;-33.858;151.184;2024-01-07T00:47:17;28.20;99.90
16441;DHT22;8330;-33.858;151.184;2024-01-07T00:49:48;28.40;99.90
16441;DHT22;8330;-33.858;151.184;2024-01-07T00:52:22;28.50;99.90
16441;DHT22;8330;-33.858;151.184;2024-01-07T00:54:52;28.40;99.90
16441;DHT22;8330;-33.858;151.184;2024-01-07T00:57:23;28.40;99.90
16441;DHT22;8330;-33.858;151.184;2024-01-07T00:59:54;28.40;99.90
16441;DHT22;8330;-33.858;151.184;2024-01-07T01:02:25;28.50;99.90
16441;DHT22;8330;-33.858;151.184;2024-01-07T01:04:56;28.50;99.90
16441;DHT22;8330;-33.858;151.184;2024-01-07T01:07:28;28.50;99.90
16441;DHT22;8330;-33.858;151.184;2024-01-07T01:09:59;28.60;99.90
16441;DHT22;8330;-33.858;151.184;2024-01-07T01:12:30;28.60;99.90
16441;DHT22;8330;-33.858;151.184;2024-01-07T01:15:01;28.50;99.90
16441;DHT22;8330;-33.858;151.184;2024-01-07T01:17:31;28.40;99.90
16441;DHT22;8330;-33.858;151.184;2024-01-07T01:20:02;28.30;99.90
16441;DHT22;8330;-33.858;151.184;2024-01-07T01:22:35;28.40;99.90
16441;DHT22;8330;-33.858;151.184;2024-01-07T01:25:06;28.40;99.90
16441;DHT22;8330;-33.858;151.184;2024-01-07T01:27:37;28.40;99.90
16441;DHT22;8330;-33.858;151.184;2024-01-07T01:30:09;28.50;99.90
16441;DHT22;8330;-33.858;151.184;2024-01-07T01:32:41;28.50;99.90
16441;DHT22;8330;-33.858;151.184;2024-01-07T01:35:12;28.50;99.90
16441;DHT22;8330;-33.858;151.184;2024-01-07T01:37:44;28.60;99.90
16441;DHT22;8330;-33.858;151.184;2024-01-07T01:40:16;28.60;99.90
16441;DHT22;8330;-33.858;151.184;2024-01-07T01:42:47;28.70;99.90
16441;DHT22;8330;-33.858;151.184;2024-01-07T01:45:18;28.80;99.90
16441;DHT22;8330;-33.858;151.184;2024-01-07T01:47:49;28.90;99.90
16441;DHT22;8330;-33.858;151.184;2024-01-07T01:50:20;29.00;99.90
16441;DHT22;8330;-33.858;151.184;2024-01-07T01:52:53;28.90;99.90
16441;DHT22;8330;-33.858;151.184;2024-01-07T01:55:25;28.80;99.90
16441;DHT22;8330;-33.858;151.184;2024-01-07T01:57:57;28.70;99.90
16441;DHT22;8330;-33.858;151.184;2024-01-07T02:00:31;28.50;99.90
16441;DHT22;8330;-33.858;151.184;2024-01-07T02:03:02;28.50;99.90
16441;DHT22;8330;-33.858;151.184;2024-01-07T02:05:33;28.50;99.90
16441;DHT22;8330;-33.858;151.184;2024-01-07T02:08:07;28.60;99.90
16441;DHT22;8330;-33.858;151.184;2024-01-07T02:10:38;28.80;99.90
16441;DHT22;8330;-33.858;151.184;2024-01-07T02:13:09;28.80;99.90
16441;DHT22;8330;-33.858;151.184;2024-01-07T02:15:39;28.80;99.90
16441;DHT22;8330;-33.858;151.184;2024-01-07T02:18:10;28.70;99.90
16441;DHT22;8330;-33.858;151.184;2024-01-07T02:20:41;28.30;99.90
16441;DHT22;8330;-33.858;151.184;2024-01-07T02:23:14;28.00;99.90
16441;DHT22;8330;-33.858;151.184;2024-01-07T02:25:46;28.10;99.90
16441;DHT22;8330;-33.858;151.184;2024-01-07T02:28:17;28.10;99.90
16441;DHT22;8330;-33.858;151.184;2024-01-07T02:30:48;28.20;99.90
16441;DHT22;8330;-33.858;151.184;2024-01-07T02:33:19;28.30;99.90
16441;DHT22;8330;-33.858;151.184;2024-01-07T02:35:49;28.60;99.90
16441;DHT22;8330;-33.858;151.184;2024-01-07T02:38:20;28.70;99.90
16441;DHT22;8330;-33.858;151.184;2024-01-07T02:40:53;28.70;99.90
16441;DHT22;8330;-33.858;151.184;2024-01-07T02:43:24;28.80;99.90
16441;DHT22;8330;-33.858;151.184;2024-01-07T02:45:54;28.90;99.90
16441;DHT22;8330;-33.858;151.184;2024-01-07T02:48:25;28.90;99.90
16441;DHT22;8330;-33.858;151.184;2024-01-07T02:50:56;28.90;99.90
16441;DHT22;8330;-33.858;151.184;2024-01-07T02:53:27;28.80;99.90
16441;DHT22;8330;-33.858;151.184;2024-01-07T02:56:00;28.80;99.90
16441;DHT22;8330;-33.858;151.184;2024-01-07T02:58:31;28.80;99.90
16441;DHT22;8330;-33.858;151.184;2024-01-07T03:01:02;28.60;99.90
16441;DHT22;8330;-33.858;151.184;2024-01-07T03:03:34;28.50;99.90
16441;DHT22;8330;-33.858;151.184;2024-01-07T03:06:05;28.40;99.90
16441;DHT22;8330;-33.858;151.184;2024-01-07T03:08:36;28.50;99.90
16441;DHT22;8330;-33.858;151.184;2024-01-07T03:11:08;28.60;99.90
16441;DHT22;8330;-33.858;151.184;2024-01-07T03:13:41;28.70;99.90
16441;DHT22;8330;-33.858;151.184;2024-01-07T03:16:20;28.90;99.90
16441;DHT22;8330;-33.858;151.184;2024-01-07T03:18:51;29.00;99.90
16441;DHT22;8330;-33.858;151.184;2024-01-07T03:21:23;29.20;99.90
16441;DHT22;8330;-33.858;151.184;2024-01-07T03:23:54;29.30;99.90
16441;DHT22;8330;-33.858;151.184;2024-01-07T03:26:30;29.40;99.90
16441;DHT22;8330;-33.858;151.184;2024-01-07T03:29:02;29.40;99.90
16441;DHT22;8330;-33.858;151.184;2024-01-07T03:31:32;29.40;99.90
16441;DHT22;8330;-33.858;151.184;2024-01-07T03:34:03;29.40;99.90
16441;DHT22;8330;-33.858;151.184;2024-01-07T03:36:34;29.50;99.90
16441;DHT22;8330;-33.858;151.184;2024-01-07T03:39:05;29.40;99.90
16441;DHT22;8330;-33.858;151.184;2024-01-07T03:41:38;29.40;99.90
16441;DHT22;8330;-33.858;151.184;2024-01-07T03:44:09;29.30;99.90
16441;DHT22;8330;-33.858;151.184;2024-01-07T03:46:40;29.20;99.90
16441;DHT22;8330;-33.858;151.184;2024-01-07T03:49:11;29.20;99.90
16441;DHT22;8330;-33.858;151.184;2024-01-07T03:51:42;29.20;99.90
16441;DHT22;8330;-33.858;151.184;2024-01-07T03:54:13;29.10;99.90
16441;DHT22;8330;-33.858;151.184;2024-01-07T03:56:46;29.10;99.90
16441;DHT22;8330;-33.858;151.184;2024-01-07T03:59:17;29.10;99.90
16441;DHT22;8330;-33.858;151.184;2024-01-07T04:01:47;29.20;99.90
16441;DHT22;8330;-33.858;151.184;2024-01-07T04:04:18;29.10;99.90
16441;DHT22;8330;-33.858;151.184;2024-01-07T04:06:54;29.00;99.90
16441;DHT22;8330;-33.858;151.184;2024-01-07T04:09:26;28.90;99.90
16441;DHT22;8330;-33.858;151.184;2024-01-07T04:11:59;29.00;99.90
16441;DHT22;8330;-33.858;151.184;2024-01-07T04:14:31;28.90;99.90
16441;DHT22;8330;-33.858;151.184;2024-01-07T04:17:03;29.00;99.90
16441;DHT22;8330;-33.858;151.184;2024-01-07T04:19:41;29.10;99.90
16441;DHT22;8330;-33.858;151.184;2024-01-07T04:22:16;29.10;99.90
16441;DHT22;8330;-33.858;151.184;2024-01-07T04:24:50;29.20;99.90
16441;DHT22;8330;-33.858;151.184;2024-01-07T04:27:30;29.20;99.90
16441;DHT22;8330;-33.858;151.184;2024-01-07T04:30:06;29.10;99.90
16441;DHT22;8330;-33.858;151.184;2024-01-07T04:32:38;29.10;99.90
16441;DHT22;8330;-33.858;151.184;2024-01-07T04:35:09;29.10;99.90
16441;DHT22;8330;-33.858;151.184;2024-01-07T04:37:39;28.90;99.90
16441;DHT22;8330;-33.858;151.184;2024-01-07T04:40:11;28.80;99.90
16441;DHT22;8330;-33.858;151.184;2024-01-07T04:42:44;28.90;99.90
16441;DHT22;8330;-33.858;151.184;2024-01-07T04:45:15;28.70;99.90
16441;DHT22;8330;-33.858;151.184;2024-01-07T04:47:45;28.90;99.90
16441;DHT22;8330;-33.858;151.184;2024-01-07T04:50:16;28.90;99.90
16441;DHT22;8330;-33.858;151.184;2024-01-07T04:52:47;28.80;99.90
16441;DHT22;8330;-33.858;151.184;2024-01-07T04:55:18;28.90;99.90
16441;DHT22;8330;-33.858;151.184;2024-01-07T04:57:51;28.90;99.90
16441;DHT22;8330;-33.858;151.184;2024-01-07T05:00:21;28.80;99.90
16441;DHT22;8330;-33.858;151.184;2024-01-07T05:02:52;28.90;99.90
16441;DHT22;8330;-33.858;151.184;2024-01-07T05:05:23;29.00;99.90
16441;DHT22;8330;-33.858;151.184;2024-01-07T05:07:54;29.00;99.90
16441;DHT22;8330;-33.858;151.184;2024-01-07T05:10:26;29.00;99.90
16441;DHT22;8330;-33.858;151.184;2024-01-07T05:12:59;28.90;99.90
16441;DHT22;8330;-33.858;151.184;2024-01-07T05:15:32;28.90;99.90
16441;DHT22;8330;-33.858;151.184;2024-01-07T05:18:04;29.00;99.90
16441;DHT22;8330;-33.858;151.184;2024-01-07T05:20:37;29.10;99.90
16441;DHT22;8330;-33.858;151.184;2024-01-07T05:23:08;29.10;99.90
16441;DHT22;8330;-33.858;151.184;2024-01-07T05:25:44;29.30;99.90
16441;DHT22;8330;-33.858;151.184;2024-01-07T05:28:17;29.30;99.90
16441;DHT22;8330;-33.858;151.184;2024-01-07T05:30:51;29.40;99.90
16441;DHT22;8330;-33.858;151.184;2024-01-07T05:33:27;29.70;99.90
16441;DHT22;8330;-33.858;151.184;2024-01-07T05:36:01;29.90;99.90
16441;DHT22;8330;-33.858;151.184;2024-01-07T05:38:32;30.00;99.90
16441;DHT22;8330;-33.858;151.184;2024-01-07T05:41:03;30.10;99.90
16441;DHT22;8330;-33.858;151.184;2024-01-07T05:43:37;30.20;99.90
16441;DHT22;8330;-33.858;151.184;2024-01-07T05:46:08;30.20;99.90
16441;DHT22;8330;-33.858;151.184;2024-01-07T05:48:47;30.20;99.90
16441;DHT22;8330;-33.858;151.184;2024-01-07T05:51:18;30.20;99.90
16441;DHT22;8330;-33.858;151.184;2024-01-07T05:53:52;30.30;99.90
16441;DHT22;8330;-33.858;151.184;2024-01-07T05:56:30;30.30;99.90
16441;DHT22;8330;-33.858;151.184;2024-01-07T05:59:05;30.40;99.90
16441;DHT22;8330;-33.858;151.184;2024-01-07T06:01:36;30.50;99.90
16441;DHT22;8330;-33.858;151.184;2024-01-07T06:04:06;30.70;99.90
16441;DHT22;8330;-33.858;151.184;2024-01-07T06:06:37;30.80;99.90
16441;DHT22;8330;-33.858;151.184;2024-01-07T06:09:08;30.90;99.90
16441;DHT22;8330;-33.858;151.184;2024-01-07T06:11:39;30.90;99.90
16441;DHT22;8330;-33.858;151.184;2024-01-07T06:14:11;31.10;99.90
16441;DHT22;8330;-33.858;151.184;2024-01-07T06:16:43;31.30;99.90
16441;DHT22;8330;-33.858;151.184;2024-01-07T06:19:13;31.50;99.90
16441;DHT22;8330;-33.858;151.184;2024-01-07T06:21:44;31.60;99.90
16441;DHT22;8330;-33.858;151.184;2024-01-07T06:24:15;31.80;99.90
16441;DHT22;8330;-33.858;151.184;2024-01-07T06:26:46;32.00;99.90
16441;DHT22;8330;-33.858;151.184;2024-01-07T06:29:18;32.20;99.90
16441;DHT22;8330;-33.858;151.184;2024-01-07T06:31:49;32.20;99.90
16441;DHT22;8330;-33.858;151.184;2024-01-07T06:34:20;32.20;99.90
16441;DHT22;8330;-33.858;151.184;2024-01-07T06:36:51;32.10;99.90
16441;DHT22;8330;-33.858;151.184;2024-01-07T06:39:22;32.10;99.90
16441;DHT22;8330;-33.858;151.184;2024-01-07T06:41:53;32.30;99.90
16441;DHT22;8330;-33.858;151.184;2024-01-07T06:44:27;32.40;99.90
16441;DHT22;8330;-33.858;151.184;2024-01-07T06:46:59;32.80;99.90
16441;DHT22;8330;-33.858;151.184;2024-01-07T06:49:34;32.70;99.90
16441;DHT22;8330;-33.858;151.184;2024-01-07T06:52:06;33.10;99.90
16441;DHT22;8330;-33.858;151.184;2024-01-07T06:54:37;33.50;99.90
16441;DHT22;8330;-33.858;151.184;2024-01-07T06:57:08;33.70;99.90
16441;DHT22;8330;-33.858;151.184;2024-01-07T06:59:41;34.10;99.90
16441;DHT22;8330;-33.858;151.184;2024-01-07T07:02:12;34.40;99.80
16441;DHT22;8330;-33.858;151.184;2024-01-07T07:04:43;34.30;99.10
16441;DHT22;8330;-33.858;151.184;2024-01-07T07:07:14;34.10;98.90
16441;DHT22;8330;-33.858;151.184;2024-01-07T07:09:45;33.70;98.20
16441;DHT22;8330;-33.858;151.184;2024-01-07T07:12:16;33.40;98.50
16441;DHT22;8330;-33.858;151.184;2024-01-07T07:14:48;33.30;98.00
16441;DHT22;8330;-33.858;151.184;2024-01-07T07:17:19;33.50;97.60
16441;DHT22;8330;-33.858;151.184;2024-01-07T07:19:50;33.70;96.90
16441;DHT22;8330;-33.858;151.184;2024-01-07T07:22:20;33.70;96.90
16441;DHT22;8330;-33.858;151.184;2024-01-07T07:24:51;34.00;96.00
16441;DHT22;8330;-33.858;151.184;2024-01-07T07:27:22;33.90;95.30
16441;DHT22;8330;-33.858;151.184;2024-01-07T07:29:55;33.70;95.50
16441;DHT22;8330;-33.858;151.184;2024-01-07T07:32:25;33.80;95.70
16441;DHT22;8330;-33.858;151.184;2024-01-07T07:34:59;33.80;94.70
16441;DHT22;8330;-33.858;151.184;2024-01-07T07:37:31;33.60;95.50
16441;DHT22;8330;-33.858;151.184;2024-01-07T07:40:02;33.50;95.60
16441;DHT22;8330;-33.858;151.184;2024-01-07T07:42:33;33.20;95.80
16441;DHT22;8330;-33.858;151.184;2024-01-07T07:45:06;33.00;96.70
16441;DHT22;8330;-33.858;151.184;2024-01-07T07:47:37;32.80;96.50
16441;DHT22;8330;-33.858;151.184;2024-01-07T07:50:12;32.20;98.00
16441;DHT22;8330;-33.858;151.184;2024-01-07T07:52:43;32.20;98.90
16441;DHT22;8330;-33.858;151.184;2024-01-07T07:55:14;32.30;99.10
16441;DHT22;8330;-33.858;151.184;2024-01-07T07:57:45;32.10;99.20
16441;DHT22;8330;-33.858;151.184;2024-01-07T08:00:19;32.00;99.90
16441;DHT22;8330;-33.858;151.184;2024-01-07T08:02:50;31.90;99.50
16441;DHT22;8330;-33.858;151.184;2024-01-07T08:05:21;31.70;99.90
16441;DHT22;8330;-33.858;151.184;2024-01-07T08:07:52;31.50;99.90
16441;DHT22;8330;-33.858;151.184;2024-01-07T08:10:24;31.30;99.90
16441;DHT22;8330;-33.858;151.184;2024-01-07T08:12:56;30.60;99.90
16441;DHT22;8330;-33.858;151.184;2024-01-07T08:15:29;30.30;99.90
16441;DHT22;8330;-33.858;151.184;2024-01-07T08:17:59;29.80;99.90
16441;DHT22;8330;-33.858;151.184;2024-01-07T08:20:31;29.40;99.90
16441;DHT22;8330;-33.858;151.184;2024-01-07T08:23:02;29.00;99.90
16441;DHT22;8330;-33.858;151.184;2024-01-07T08:25:33;28.80;99.90
16441;DHT22;8330;-33.858;151.184;2024-01-07T08:28:04;28.60;99.90
16441;DHT22;8330;-33.858;151.184;2024-01-07T08:30:37;28.20;99.90
16441;DHT22;8330;-33.858;151.184;2024-01-07T08:33:07;28.10;99.90
16441;DHT22;8330;-33.858;151.184;2024-01-07T08:35:38;28.00;99.90
16441;DHT22;8330;-33.858;151.184;2024-01-07T08:38:09;27.70;99.90
16441;DHT22;8330;-33.858;151.184;2024-01-07T08:40:41;27.60;99.90
16441;DHT22;8330;-33.858;151.184;2024-01-07T08:43:12;27.50;99.90
16441;DHT22;8330;-33.858;151.184;2024-01-07T08:45:45;27.40;99.90
16441;DHT22;8330;-33.858;151.184;2024-01-07T08:48:17;27.30;99.90
16441;DHT22;8330;-33.858;151.184;2024-01-07T08:50:53;27.30;99.90
16441;DHT22;8330;-33.858;151.184;2024-01-07T08:53:31;27.10;99.90
16441;DHT22;8330;-33.858;151.184;2024-01-07T08:56:08;27.00;99.90
16441;DHT22;8330;-33.858;151.184;2024-01-07T08:58:42;26.90;99.90
16441;DHT22;8330;-33.858;151.184;2024-01-07T09:01:27;26.90;99.90
16441;DHT22;8330;-33.858;151.184;2024-01-07T09:04:10;26.80;99.90
16441;DHT22;8330;-33.858;151.184;2024-01-07T09:06:43;26.80;99.90
16441;DHT22;8330;-33.858;151.184;2024-01-07T09:09:14;26.60;99.90
16441;DHT22;8330;-33.858;151.184;2024-01-07T09:11:54;26.60;99.90
16441;DHT22;8330;-33.858;151.184;2024-01-07T09:14:27;26.50;99.90
16441;DHT22;8330;-33.858;151.184;2024-01-07T09:17:26;26.40;99.90
16441;DHT22;8330;-33.858;151.184;2024-01-07T09:20:07;26.30;99.90
16441;DHT22;8330;-33.858;151.184;2024-01-07T09:22:44;26.30;99.90
16441;DHT22;8330;-33.858;151.184;2024-01-07T09:25:29;26.40;99.90
16441;DHT22;8330;-33.858;151.184;2024-01-07T09:28:07;26.30;99.90
16441;DHT22;8330;-33.858;151.184;2024-01-07T09:30:43;26.30;99.90
16441;DHT22;8330;-33.858;151.184;2024-01-07T09:33:28;26.20;99.90
16441;DHT22;8330;-33.858;151.184;2024-01-07T09:36:08;26.20;99.90
16441;DHT22;8330;-33.858;151.184;2024-01-07T09:38:39;26.20;99.90
16441;DHT22;8330;-33.858;151.184;2024-01-07T09:41:33;26.20;99.90
16441;DHT22;8330;-33.858;151.184;2024-01-07T09:47:42;26.10;99.90
16441;DHT22;8330;-33.858;151.184;2024-01-07T09:50:49;26.10;99.90
16441;DHT22;8330;-33.858;151.184;2024-01-07T09:53:47;26.00;99.90
16441;DHT22;8330;-33.858;151.184;2024-01-07T09:59:28;25.90;99.90
16441;DHT22;8330;-33.858;151.184;2024-01-07T10:02:05;25.80;99.90
16441;DHT22;8330;-33.858;151.184;2024-01-07T10:05:00;25.90;99.90
16441;DHT22;8330;-33.858;151.184;2024-01-07T10:07:42;25.90;99.90
16441;DHT22;8330;-33.858;151.184;2024-01-07T10:10:19;25.90;99.90
16441;DHT22;8330;-33.858;151.184;2024-01-07T10:13:01;25.90;99.90
16441;DHT22;8330;-33.858;151.184;2024-01-07T10:15:50;25.80;99.90
16441;DHT22;8330;-33.858;151.184;2024-01-07T10:18:28;25.80;99.90
16441;DHT22;8330;-33.858;151.184;2024-01-07T10:21:03;25.90;99.90
16441;DHT22;8330;-33.858;151.184;2024-01-07T10:23:44;25.80;99.90
16441;DHT22;8330;-33.858;151.184;2024-01-07T10:26:19;25.80;99.90
16441;DHT22;8330;-33.858;151.184;2024-01-07T10:28:53;25.80;99.90
16441;DHT22;8330;-33.858;151.184;2024-01-07T10:31:29;25.80;99.90
16441;DHT22;8330;-33.858;151.184;2024-01-07T10:34:00;25.80;99.90
16441;DHT22;8330;-33.858;151.184;2024-01-07T10:36:32;25.80;99.90
16441;DHT22;8330;-33.858;151.184;2024-01-07T10:39:04;25.80;99.90
16441;DHT22;8330;-33.858;151.184;2024-01-07T10:41:38;25.70;99.90
16441;DHT22;8330;-33.858;151.184;2024-01-07T10:44:09;25.70;99.90
16441;DHT22;8330;-33.858;151.184;2024-01-07T10:46:40;25.60;99.90
16441;DHT22;8330;-33.858;151.184;2024-01-07T10:49:19;25.70;99.90
16441;DHT22;8330;-33.858;151.184;2024-01-07T10:51:58;25.60;99.90
16441;DHT22;8330;-33.858;151.184;2024-01-07T10:54:35;25.70;99.90
16441;DHT22;8330;-33.858;151.184;2024-01-07T10:57:12;25.60;99.90
16441;DHT22;8330;-33.858;151.184;2024-01-07T10:59:46;25.60;99.90
16441;DHT22;8330;-33.858;151.184;2024-01-07T11:02:18;25.60;99.90
16441;DHT22;8330;-33.858;151.184;2024-01-07T11:04:56;25.60;99.90
16441;DHT22;8330;-33.858;151.184;2024-01-07T11:07:48;25.70;99.90
16441;DHT22;8330;-33.858;151.184;2024-01-07T11:10:31;25.60;99.90
16441;DHT22;8330;-33.858;151.184;2024-01-07T11:13:05;25.60;99.90
16441;DHT22;8330;-33.858;151.184;2024-01-07T11:15:52;25.50;99.90
16441;DHT22;8330;-33.858;151.184;2024-01-07T11:18:23;25.60;99.90
16441;DHT22;8330;-33.858;151.184;2024-01-07T11:21:00;25.50;99.90
16441;DHT22;8330;-33.858;151.184;2024-01-07T11:23:32;25.50;99.90
16441;DHT22;8330;-33.858;151.184;2024-01-07T11:26:07;25.50;99.90
16441;DHT22;8330;-33.858;151.184;2024-01-07T11:28:46;25.50;99.90
16441;DHT22;8330;-33.858;151.184;2024-01-07T11:31:18;25.50;99.90
16441;DHT22;8330;-33.858;151.184;2024-01-07T11:33:49;25.50;99.90
16441;DHT22;8330;-33.858;151.184;2024-01-07T11:36:20;25.50;99.90
16441;DHT22;8330;-33.858;151.184;2024-01-07T11:38:51;25.50;99.90
16441;DHT22;8330;-33.858;151.184;2024-01-07T11:41:25;25.50;99.90
16441;DHT22;8330;-33.858;151.184;2024-01-07T11:43:57;25.40;99.90
16441;DHT22;8330;-33.858;151.184;2024-01-07T11:46:28;25.40;99.90
16441;DHT22;8330;-33.858;151.184;2024-01-07T11:49:17;25.40;99.90
16441;DHT22;8330;-33.858;151.184;2024-01-07T11:51:48;25.40;99.90
16441;DHT22;8330;-33.858;151.184;2024-01-07T11:54:19;25.30;99.90
16441;DHT22;8330;-33.858;151.184;2024-01-07T11:56:50;25.30;99.90
16441;DHT22;8330;-33.858;151.184;2024-01-07T11:59:21;25.30;99.90
16441;DHT22;8330;-33.858;151.184;2024-01-07T12:01:52;25.30;99.90
16441;DHT22;8330;-33.858;151.184;2024-01-07T12:04:24;25.40;99.90
16441;DHT22;8330;-33.858;151.184;2024-01-07T12:06:55;25.40;99.90
16441;DHT22;8330;-33.858;151.184;2024-01-07T12:09:26;25.30;99.90
16441;DHT22;8330;-33.858;151.184;2024-01-07T12:11:57;25.30;99.90
16441;DHT22;8330;-33.858;151.184;2024-01-07T12:14:29;25.40;99.90
16441;DHT22;8330;-33.858;151.184;2024-01-07T12:17:01;25.40;99.90
16441;DHT22;8330;-33.858;151.184;2024-01-07T12:19:34;25.40;99.90
16441;DHT22;8330;-33.858;151.184;2024-01-07T12:22:06;25.40;99.90
16441;DHT22;8330;-33.858;151.184;2024-01-07T12:24:37;25.40;99.90
16441;DHT22;8330;-33.858;151.184;2024-01-07T12:27:08;25.40;99.90
16441;DHT22;8330;-33.858;151.184;2024-01-07T12:29:38;25.30;99.90
16441;DHT22;8330;-33.858;151.184;2024-01-07T12:32:10;25.30;99.90
16441;DHT22;8330;-33.858;151.184;2024-01-07T12:34:43;25.30;99.90
16441;DHT22;8330;-33.858;151.184;2024-01-07T12:37:15;25.30;99.90
16441;DHT22;8330;-33.858;151.184;2024-01-07T12:39:46;25.30;99.90
16441;DHT22;8330;-33.858;151.184;2024-01-07T12:42:17;25.30;99.90
16441;DHT22;8330;-33.858;151.184;2024-01-07T12:44:49;25.20;99.90
16441;DHT22;8330;-33.858;151.184;2024-01-07T12:47:20;25.20;99.90
16441;DHT22;8330;-33.858;151.184;2024-01-07T12:49:53;25.20;99.90
16441;DHT22;8330;-33.858;151.184;2024-01-07T12:52:23;25.20;99.90
16441;DHT22;8330;-33.858;151.184;2024-01-07T12:54:57;25.20;99.90
16441;DHT22;8330;-33.858;151.184;2024-01-07T12:57:27;25.20;99.90
16441;DHT22;8330;-33.858;151.184;2024-01-07T12:59:58;25.20;99.90
16441;DHT22;8330;-33.858;151.184;2024-01-07T13:02:29;25.20;99.90
16441;DHT22;8330;-33.858;151.184;2024-01-07T13:05:02;25.20;99.90
16441;DHT22;8330;-33.858;151.184;2024-01-07T13:07:32;25.20;99.90
16441;DHT22;8330;-33.858;151.184;2024-01-07T13:10:03;25.20;99.90
16441;DHT22;8330;-33.858;151.184;2024-01-07T13:12:38;25.20;99.90
16441;DHT22;8330;-33.858;151.184;2024-01-07T13:15:09;25.10;99.90
16441;DHT22;8330;-33.858;151.184;2024-01-07T13:17:40;25.10;99.90
16441;DHT22;8330;-33.858;151.184;2024-01-07T13:20:13;25.10;99.90
16441;DHT22;8330;-33.858;151.184;2024-01-07T13:22:45;25.10;99.90
16441;DHT22;8330;-33.858;151.184;2024-01-07T13:25:16;25.10;99.90
16441;DHT22;8330;-33.858;151.184;2024-01-07T13:27:50;25.20;99.90
16441;DHT22;8330;-33.858;151.184;2024-01-07T13:30:21;25.10;99.90
16441;DHT22;8330;-33.858;151.184;2024-01-07T13:32:51;25.10;99.90
16441;DHT22;8330;-33.858;151.184;2024-01-07T13:35:26;25.20;99.90
16441;DHT22;8330;-33.858;151.184;2024-01-07T13:37:57;25.20;99.90
16441;DHT22;8330;-33.858;151.184;2024-01-07T13:40:28;25.20;99.90
16441;DHT22;8330;-33.858;151.184;2024-01-07T13:42:59;25.30;99.90
16441;DHT22;8330;-33.858;151.184;2024-01-07T13:45:30;25.30;99.90
16441;DHT22;8330;-33.858;151.184;2024-01-07T13:48:01;25.20;99.90
16441;DHT22;8330;-33.858;151.184;2024-01-07T13:50:34;25.20;99.90
16441;DHT22;8330;-33.858;151.184;2024-01-07T13:53:05;25.20;99.90
16441;DHT22;8330;-33.858;151.184;2024-01-07T13:55:36;25.20;99.90
16441;DHT22;8330;-33.858;151.184;2024-01-07T13:58:09;25.10;99.90
16441;DHT22;8330;-33.858;151.184;2024-01-07T14:00:40;25.10;99.90
16441;DHT22;8330;-33.858;151.184;2024-01-07T14:03:11;25.20;99.90
16441;DHT22;8330;-33.858;151.184;2024-01-07T14:05:44;25.20;99.90
16441;DHT22;8330;-33.858;151.184;2024-01-07T14:08:14;25.10;99.90
16441;DHT22;8330;-33.858;151.184;2024-01-07T14:10:45;25.10;99.90
16441;DHT22;8330;-33.858;151.184;2024-01-07T14:13:16;25.20;99.90
16441;DHT22;8330;-33.858;151.184;2024-01-07T14:15:47;25.10;99.90
16441;DHT22;8330;-33.858;151.184;2024-01-07T14:18:18;25.10;99.90
16441;DHT22;8330;-33.858;151.184;2024-01-07T14:20:52;25.10;99.90
16441;DHT22;8330;-33.858;151.184;2024-01-07T14:23:23;25.00;99.90
16441;DHT22;8330;-33.858;151.184;2024-01-07T14:25:53;25.00;99.90
16441;DHT22;8330;-33.858;151.184;2024-01-07T14:28:24;25.10;99.90
16441;DHT22;8330;-33.858;151.184;2024-01-07T14:30:55;25.00;99.90
16441;DHT22;8330;-33.858;151.184;2024-01-07T14:33:26;25.10;99.90
16441;DHT22;8330;-33.858;151.184;2024-01-07T14:35:58;25.00;99.90
16441;DHT22;8330;-33.858;151.184;2024-01-07T14:38:30;25.00;99.90
16441;DHT22;8330;-33.858;151.184;2024-01-07T14:41:01;25.00;99.90
16441;DHT22;8330;-33.858;151.184;2024-01-07T14:43:31;25.00;99.90
16441;DHT22;8330;-33.858;151.184;2024-01-07T14:46:02;24.90;99.90
16441;DHT22;8330;-33.858;151.184;2024-01-07T14:48:34;25.00;99.90
16441;DHT22;8330;-33.858;151.184;2024-01-07T14:51:08;24.90;99.90
16441;DHT22;8330;-33.858;151.184;2024-01-07T14:53:38;24.90;99.90
16441;DHT22;8330;-33.858;151.184;2024-01-07T14:56:09;24.90;99.90
16441;DHT22;8330;-33.858;151.184;2024-01-07T14:58:40;24.90;99.90
16441;DHT22;8330;-33.858;151.184;2024-01-07T15:01:11;24.90;99.90
16441;DHT22;8330;-33.858;151.184;2024-01-07T15:03:42;24.90;99.90
16441;DHT22;8330;-33.858;151.184;2024-01-07T15:06:14;24.90;99.90
16441;DHT22;8330;-33.858;151.184;2024-01-07T15:08:45;24.80;99.90
16441;DHT22;8330;-33.858;151.184;2024-01-07T15:11:16;24.80;99.90
16441;DHT22;8330;-33.858;151.184;2024-01-07T15:13:47;24.80;99.90
16441;DHT22;8330;-33.858;151.184;2024-01-07T15:16:19;24.90;99.90
16441;DHT22;8330;-33.858;151.184;2024-01-07T15:18:49;24.90;99.90
16441;DHT22;8330;-33.858;151.184;2024-01-07T15:21:22;24.90;99.90
16441;DHT22;8330;-33.858;151.184;2024-01-07T15:23:53;24.90;99.90
16441;DHT22;8330;-33.858;151.184;2024-01-07T15:26:24;24.70;99.90
16441;DHT22;8330;-33.858;151.184;2024-01-07T15:28:54;24.80;99.90
16441;DHT22;8330;-33.858;151.184;2024-01-07T15:31:25;24.80;99.90
16441;DHT22;8330;-33.858;151.184;2024-01-07T15:33:56;24.80;99.90
16441;DHT22;8330;-33.858;151.184;2024-01-07T15:36:29;24.80;99.90
16441;DHT22;8330;-33.858;151.184;2024-01-07T15:38:59;24.80;99.90
16441;DHT22;8330;-33.858;151.184;2024-01-07T15:41:30;24.80;99.90
16441;DHT22;8330;-33.858;151.184;2024-01-07T15:44:01;24.80;99.90